Terminal Aerodrome Forecast
Issued by NWS

Home | Current Version | Previous Version | Text Only | Print | Product List | Glossary On
Versions: 1 2 3 4 5 6 7 8 9 10 11 12
000
FTUS46 KPDT 280529
TAFDLS
TAF
KDLS 280529Z 2806/0106 33008KT P6SM VCSH SCT025 BKN050 OVC080
     FM280800 30011KT P6SM BKN080
     FM282000 30014G22KT P6SM SCT080 BKN140
     FM010300 30008KT P6SM SCT060 BKN100=

USA.gov is the U.S. government's official web portal to all federal, state and local government web resources and services.